createdAt,value
2016-05-22T00:00:36.875Z,0
2016-05-22T00:01:36.909Z,0
2016-05-22T00:02:36.959Z,0
2016-05-22T00:03:36.977Z,0
2016-05-22T00:04:37.026Z,0
2016-05-22T00:05:36.920Z,0
2016-05-22T00:06:37.110Z,0
2016-05-22T00:07:37.143Z,0
2016-05-22T00:08:37.194Z,0
2016-05-22T00:09:37.228Z,0
2016-05-22T00:10:37.261Z,0
2016-05-22T00:11:37.359Z,0
2016-05-22T00:12:37.767Z,0
2016-05-22T00:13:37.394Z,0
2016-05-22T00:14:37.632Z,0
2016-05-22T00:15:37.134Z,0
2016-05-22T00:16:37.497Z,0
2016-05-22T00:17:37.514Z,0
2016-05-22T00:18:37.564Z,0
2016-05-22T00:19:37.426Z,0
2016-05-22T00:20:37.507Z,0
2016-05-22T00:21:37.510Z,0
2016-05-22T00:22:37.716Z,0
2016-05-22T00:23:37.608Z,0
2016-05-22T00:24:37.800Z,0
2016-05-22T00:25:38.239Z,0
2016-05-22T00:26:37.851Z,0
2016-05-22T00:27:37.792Z,0
2016-05-22T00:28:37.935Z,0
2016-05-22T00:29:37.985Z,0
2016-05-22T00:30:38.018Z,0
2016-05-22T00:31:38.052Z,0
2016-05-22T00:32:38.086Z,0
2016-05-22T00:33:38.120Z,0
2016-05-22T00:34:38.154Z,0
2016-05-22T00:35:38.048Z,0
2016-05-22T00:36:38.238Z,0
2016-05-22T00:37:38.271Z,0
2016-05-22T00:38:38.321Z,0
2016-05-22T00:39:38.340Z,0
2016-05-22T00:40:38.232Z,0
2016-05-22T00:41:38.423Z,0
2016-05-22T00:42:38.942Z,0
2016-05-22T00:43:38.506Z,0
2016-05-22T00:44:38.541Z,0
2016-05-22T00:45:38.575Z,0
2016-05-22T00:46:38.467Z,0
2016-05-22T00:47:38.643Z,0
2016-05-22T00:48:38.520Z,0
2016-05-22T00:49:38.553Z,0
2016-05-22T00:50:38.759Z,0
2016-05-22T00:51:38.794Z,0
2016-05-22T00:52:38.828Z,0
2016-05-22T00:53:38.877Z,0
2016-05-22T00:54:38.755Z,0
2016-05-22T00:55:38.945Z,0
2016-05-22T00:56:38.979Z,0
2016-05-22T00:57:39.153Z,0
2016-05-22T00:58:38.922Z,0
2016-05-22T00:59:39.097Z,0
2016-05-22T01:00:39.130Z,0
2016-05-22T01:01:39.149Z,0
2016-05-22T01:02:39.198Z,0
2016-05-22T01:03:39.248Z,0
2016-05-22T01:04:39.282Z,0
2016-05-22T01:05:39.315Z,0
2016-05-22T01:06:39.349Z,0
2016-05-22T01:07:39.384Z,0
2016-05-22T01:08:39.262Z,0
2016-05-22T01:09:39.467Z,0
2016-05-22T01:10:39.345Z,0
2016-05-22T01:11:39.551Z,0
2016-05-22T01:12:39.693Z,0
2016-05-22T01:13:39.618Z,0
2016-05-22T01:14:39.496Z,0
2016-05-22T01:15:39.530Z,0
2016-05-22T01:16:39.737Z,0
2016-05-22T01:17:39.754Z,0
2016-05-22T01:18:39.819Z,0
2016-05-22T01:19:39.822Z,0
2016-05-22T01:20:39.872Z,0
2016-05-22T01:21:39.906Z,0
2016-05-22T01:22:39.784Z,0
2016-05-22T01:23:39.677Z,0
2016-05-22T01:24:40.023Z,0
2016-05-22T01:25:40.057Z,0
2016-05-22T01:26:40.091Z,0
2016-05-22T01:27:40.500Z,0
2016-05-22T01:28:39.861Z,0
2016-05-22T01:29:40.208Z,0
2016-05-22T01:30:40.101Z,0
2016-05-22T01:31:40.276Z,0
2016-05-22T01:32:40.154Z,0
2016-05-22T01:33:40.360Z,0
2016-05-22T01:34:40.252Z,0
2016-05-22T01:35:40.427Z,0
2016-05-22T01:36:40.462Z,0
2016-05-22T01:37:40.355Z,0
2016-05-22T01:38:40.545Z,0
2016-05-22T01:39:40.563Z,0
2016-05-22T01:40:40.456Z,0
2016-05-22T01:41:40.679Z,0
2016-05-22T01:42:40.243Z,0
2016-05-22T01:43:40.746Z,0
2016-05-22T01:44:40.764Z,0
2016-05-22T01:45:40.892Z,0
2016-05-22T01:46:40.879Z,0
2016-05-22T01:47:40.882Z,0
2016-05-22T01:48:40.900Z,0
2016-05-22T01:49:40.934Z,0
2016-05-22T01:50:40.984Z,0
2016-05-22T01:51:41.033Z,0
2016-05-22T01:52:40.895Z,0
2016-05-22T01:53:41.085Z,0
2016-05-22T01:54:41.136Z,0
2016-05-22T01:55:41.184Z,0
2016-05-22T01:56:41.047Z,0
2016-05-22T01:57:41.658Z,0
2016-05-22T01:58:41.302Z,0
2016-05-22T01:59:41.336Z,0
2016-05-22T02:00:41.339Z,0
2016-05-22T02:01:41.404Z,0
2016-05-22T02:02:41.453Z,0
2016-05-22T02:03:41.471Z,0
2016-05-22T02:04:41.491Z,0
2016-05-22T02:05:41.540Z,0
2016-05-22T02:06:41.432Z,0
2016-05-22T02:07:41.608Z,0
2016-05-22T02:08:41.657Z,0
2016-05-22T02:09:41.691Z,0
2016-05-22T02:10:41.724Z,0
2016-05-22T02:11:41.759Z,0
2016-05-22T02:12:41.809Z,0
2016-05-22T02:13:41.843Z,0
2016-05-22T02:14:41.860Z,0
2016-05-22T02:15:41.910Z,0
2016-05-22T02:16:41.929Z,0
2016-05-22T02:17:41.822Z,0
2016-05-22T02:18:42.012Z,0
2016-05-22T02:19:42.046Z,0
2016-05-22T02:20:42.081Z,0
2016-05-22T02:21:42.129Z,0
2016-05-22T02:22:42.007Z,0
2016-05-22T02:23:42.197Z,0
2016-05-22T02:24:42.231Z,0
2016-05-22T02:25:42.265Z,0
2016-05-22T02:26:42.300Z,0
2016-05-22T02:27:42.614Z,0
2016-05-22T02:28:42.383Z,0
2016-05-22T02:29:42.417Z,0
2016-05-22T02:30:42.310Z,0
2016-05-22T02:31:42.469Z,0
2016-05-22T02:32:42.534Z,0
2016-05-22T02:33:42.569Z,0
2016-05-22T02:34:42.602Z,0
2016-05-22T02:35:42.636Z,0
2016-05-22T02:36:42.513Z,0
2016-05-22T02:37:42.547Z,0
2016-05-22T02:38:42.597Z,0
2016-05-22T02:39:42.632Z,0
2016-05-22T02:40:42.821Z,0
2016-05-22T02:41:42.855Z,0
2016-05-22T02:42:43.468Z,0
2016-05-22T02:43:42.923Z,0
2016-05-22T02:44:42.956Z,0
2016-05-22T02:45:42.679Z,0
2016-05-22T02:46:43.040Z,0
2016-05-22T02:47:43.059Z,0
2016-05-22T02:48:43.093Z,0
2016-05-22T02:49:42.986Z,0
2016-05-22T02:50:43.192Z,0
2016-05-22T02:51:43.070Z,0
2016-05-22T02:52:43.244Z,0
2016-05-22T02:53:43.278Z,0
2016-05-22T02:54:43.328Z,0
2016-05-22T02:55:43.205Z,0
2016-05-22T02:56:43.411Z,0
2016-05-22T02:57:43.305Z,0
2016-05-22T02:58:43.322Z,0
2016-05-22T02:59:43.356Z,0
2016-05-22T03:00:43.391Z,0
2016-05-22T03:01:43.566Z,0
2016-05-22T03:02:43.614Z,0
2016-05-22T03:03:43.491Z,0
2016-05-22T03:04:43.527Z,0
2016-05-22T03:05:43.576Z,0
2016-05-22T03:06:43.766Z,0
2016-05-22T03:07:43.800Z,0
2016-05-22T03:08:43.835Z,0
2016-05-22T03:09:43.712Z,0
2016-05-22T03:10:43.745Z,0
2016-05-22T03:11:43.795Z,0
2016-05-22T03:12:43.845Z,0
2016-05-22T03:13:43.863Z,0
2016-05-22T03:14:43.896Z,0
2016-05-22T03:15:43.931Z,0
2016-05-22T03:16:44.137Z,0
2016-05-22T03:17:43.998Z,0
2016-05-22T03:18:44.190Z,0
2016-05-22T03:19:44.067Z,0
2016-05-22T03:20:44.273Z,0
2016-05-22T03:21:44.306Z,0
2016-05-22T03:22:44.340Z,0
2016-05-22T03:23:44.375Z,0
2016-05-22T03:24:44.408Z,5
2016-05-22T03:25:44.442Z,5
2016-05-22T03:26:44.492Z,5
2016-05-22T03:27:44.400Z,5
2016-05-22T03:28:44.559Z,5
2016-05-22T03:29:44.610Z,5
2016-05-22T03:30:44.692Z,5
2016-05-22T03:31:44.741Z,5
2016-05-22T03:32:44.651Z,10
2016-05-22T03:33:44.873Z,10
2016-05-22T03:34:44.786Z,10
2016-05-22T03:35:44.832Z,10
2016-05-22T03:36:44.891Z,10
2016-05-22T03:37:45.078Z,15
2016-05-22T03:38:44.982Z,15
2016-05-22T03:39:45.009Z,15
2016-05-22T03:40:45.061Z,15
2016-05-22T03:41:45.256Z,15
2016-05-22T03:42:45.012Z,20
2016-05-22T03:43:45.176Z,20
2016-05-22T03:44:45.369Z,20
2016-05-22T03:45:45.421Z,20
2016-05-22T03:46:45.440Z,25
2016-05-22T03:47:45.491Z,25
2016-05-22T03:48:45.527Z,25
2016-05-22T03:49:45.436Z,25
2016-05-22T03:50:45.471Z,25
2016-05-22T03:51:45.646Z,25
2016-05-22T03:52:45.680Z,30
2016-05-22T03:53:45.402Z,30
2016-05-22T03:54:45.748Z,30
2016-05-22T03:55:45.783Z,35
2016-05-22T03:56:45.816Z,35
2016-05-22T03:57:46.288Z,35
2016-05-22T03:58:45.899Z,35
2016-05-22T03:59:45.777Z,35
2016-05-22T04:00:45.796Z,35
2016-05-22T04:01:46.002Z,35
2016-05-22T04:02:45.879Z,35
2016-05-22T04:03:46.069Z,40
2016-05-22T04:04:46.103Z,40
2016-05-22T04:05:46.152Z,40
2016-05-22T04:06:46.031Z,40
2016-05-22T04:07:46.221Z,40
2016-05-22T04:08:46.270Z,40
2016-05-22T04:09:46.288Z,40
2016-05-22T04:10:46.323Z,40
2016-05-22T04:11:46.373Z,40
2016-05-22T04:12:46.188Z,40
2016-05-22T04:13:46.284Z,40
2016-05-22T04:14:46.333Z,40
2016-05-22T04:15:46.351Z,40
2016-05-22T04:16:46.542Z,45
2016-05-22T04:17:46.592Z,45
2016-05-22T04:18:46.470Z,45
2016-05-22T04:19:46.660Z,45
2016-05-22T04:20:46.692Z,50
2016-05-22T04:21:46.587Z,50
2016-05-22T04:22:46.777Z,50
2016-05-22T04:23:46.655Z,50
2016-05-22T04:24:46.845Z,50
2016-05-22T04:25:46.723Z,50
2016-05-22T04:26:46.928Z,55
2016-05-22T04:27:47.431Z,55
2016-05-22T04:28:46.528Z,55
2016-05-22T04:29:47.046Z,55
2016-05-22T04:30:47.049Z,55
2016-05-22T04:31:47.097Z,60
2016-05-22T04:32:46.975Z,60
2016-05-22T04:33:47.166Z,60
2016-05-22T04:34:47.246Z,70
2016-05-22T04:35:47.077Z,70
2016-05-22T04:36:47.268Z,75
2016-05-22T04:37:47.161Z,80
2016-05-22T04:38:47.351Z,85
2016-05-22T04:39:47.369Z,85
2016-05-22T04:40:47.418Z,90
2016-05-22T04:41:47.468Z,90
2016-05-22T04:42:47.565Z,95
2016-05-22T04:43:47.396Z,95
2016-05-22T04:44:47.570Z,100
2016-05-22T04:45:47.589Z,105
2016-05-22T04:46:47.482Z,110
2016-05-22T04:47:47.375Z,120
2016-05-22T04:48:47.706Z,125
2016-05-22T04:49:47.740Z,130
2016-05-22T04:50:47.649Z,135
2016-05-22T04:51:47.667Z,145
2016-05-22T04:52:47.858Z,145
2016-05-22T04:53:47.735Z,155
2016-05-22T04:54:47.613Z,160
2016-05-22T04:55:47.819Z,160
2016-05-22T04:56:48.008Z,170
2016-05-22T04:57:48.074Z,155
2016-05-22T04:58:48.092Z,165
2016-05-22T04:59:48.111Z,185
2016-05-22T05:00:48.160Z,195
2016-05-22T05:01:48.194Z,185
2016-05-22T05:02:48.243Z,190
2016-05-22T05:03:48.105Z,220
2016-05-22T05:04:48.171Z,250
2016-05-22T05:05:48.346Z,230
2016-05-22T05:06:48.395Z,230
2016-05-22T05:07:48.429Z,205
2016-05-22T05:08:48.463Z,225
2016-05-22T05:09:48.496Z,250
2016-05-22T05:10:48.563Z,235
2016-05-22T05:11:48.565Z,245
2016-05-22T05:12:48.754Z,240
2016-05-22T05:13:48.507Z,240
2016-05-22T05:14:48.698Z,255
2016-05-22T05:15:48.575Z,250
2016-05-22T05:16:48.782Z,230
2016-05-22T05:17:48.659Z,225
2016-05-22T05:18:48.848Z,245
2016-05-22T05:19:48.883Z,240
2016-05-22T05:20:48.917Z,230
2016-05-22T05:21:48.967Z,245
2016-05-22T05:22:48.985Z,245
2016-05-22T05:23:49.035Z,240
2016-05-22T05:24:48.755Z,230
2016-05-22T05:25:49.117Z,205
2016-05-22T05:26:49.153Z,185
2016-05-22T05:27:49.311Z,175
2016-05-22T05:28:49.236Z,180
2016-05-22T05:29:49.270Z,185
2016-05-22T05:30:49.303Z,185
2016-05-22T05:31:49.196Z,195
2016-05-22T05:32:49.387Z,200
2016-05-22T05:33:49.421Z,210
2016-05-22T05:34:49.314Z,215
2016-05-22T05:35:49.489Z,215
2016-05-22T05:36:49.539Z,215
2016-05-22T05:37:49.588Z,210
2016-05-22T05:38:49.622Z,205
2016-05-22T05:39:49.655Z,205
2016-05-22T05:40:49.690Z,200
2016-05-22T05:41:49.740Z,200
2016-05-22T05:42:49.477Z,190
2016-05-22T05:43:49.807Z,175
2016-05-22T05:44:49.684Z,185
2016-05-22T05:45:49.890Z,180
2016-05-22T05:46:49.924Z,165
2016-05-22T05:47:49.989Z,155
2016-05-22T05:48:49.868Z,155
2016-05-22T05:49:50.042Z,155
2016-05-22T05:50:49.935Z,160
2016-05-22T05:51:50.109Z,160
2016-05-22T05:52:50.160Z,165
2016-05-22T05:53:50.209Z,175
2016-05-22T05:54:50.243Z,175
2016-05-22T05:55:50.136Z,185
2016-05-22T05:56:50.326Z,185
2016-05-22T05:57:50.876Z,195
2016-05-22T05:58:50.394Z,195
2016-05-22T05:59:50.428Z,195
2016-05-22T06:00:50.322Z,205
2016-05-22T06:01:50.527Z,215
2016-05-22T06:02:50.233Z,210
2016-05-22T06:03:50.594Z,205
2016-05-22T06:04:50.489Z,200
2016-05-22T06:05:50.522Z,200
2016-05-22T06:06:50.713Z,205
2016-05-22T06:07:50.591Z,200
2016-05-22T06:08:50.640Z,190
2016-05-22T06:09:50.846Z,190
2016-05-22T06:10:50.583Z,190
2016-05-22T06:11:50.913Z,195
2016-05-22T06:12:50.994Z,220
2016-05-22T06:13:50.826Z,235
2016-05-22T06:14:51.032Z,240
2016-05-22T06:15:51.049Z,240
2016-05-22T06:16:50.943Z,240
2016-05-22T06:17:50.837Z,235
2016-05-22T06:18:51.183Z,240
2016-05-22T06:19:51.217Z,255
2016-05-22T06:20:50.953Z,255
2016-05-22T06:21:51.315Z,250
2016-05-22T06:22:51.350Z,245
2016-05-22T06:23:51.384Z,225
2016-05-22T06:24:51.418Z,220
2016-05-22T06:25:51.451Z,220
2016-05-22T06:26:51.485Z,240
2016-05-22T06:27:52.035Z,235
2016-05-22T06:28:51.428Z,225
2016-05-22T06:29:51.478Z,250
2016-05-22T06:30:51.653Z,255
2016-05-22T06:31:51.703Z,255
2016-05-22T06:32:51.735Z,260
2016-05-22T06:33:51.769Z,270
2016-05-22T06:34:51.819Z,275
2016-05-22T06:35:51.853Z,255
2016-05-22T06:36:51.888Z,265
2016-05-22T06:37:51.936Z,250
2016-05-22T06:38:51.970Z,250
2016-05-22T06:39:52.035Z,240
2016-05-22T06:40:52.069Z,235
2016-05-22T06:41:52.104Z,235
2016-05-22T06:42:52.747Z,235
2016-05-22T06:43:52.250Z,235
2016-05-22T06:44:52.049Z,245
2016-05-22T06:45:52.254Z,245
2016-05-22T06:46:52.290Z,250
2016-05-22T06:47:52.354Z,250
2016-05-22T06:48:52.373Z,250
2016-05-22T06:49:52.407Z,260
2016-05-22T06:50:52.471Z,265
2016-05-22T06:51:52.489Z,265
2016-05-22T06:52:52.523Z,260
2016-05-22T06:53:52.573Z,255
2016-05-22T06:54:52.451Z,250
2016-05-22T06:55:52.642Z,245
2016-05-22T06:56:52.691Z,250
2016-05-22T06:57:52.756Z,245
2016-05-22T06:58:52.790Z,240
2016-05-22T06:59:52.839Z,230
2016-05-22T07:00:52.843Z,230
2016-05-22T07:01:52.892Z,215
2016-05-22T07:02:52.785Z,235
2016-05-22T07:03:52.975Z,250
2016-05-22T07:04:52.869Z,250
2016-05-22T07:05:52.902Z,255
2016-05-22T07:06:52.780Z,255
2016-05-22T07:07:53.127Z,275
2016-05-22T07:08:53.177Z,285
2016-05-22T07:09:52.897Z,280
2016-05-22T07:10:53.291Z,295
2016-05-22T07:11:53.325Z,285
2016-05-22T07:12:53.124Z,285
2016-05-22T07:13:53.362Z,295
2016-05-22T07:14:53.411Z,290
2016-05-22T07:15:53.460Z,300
2016-05-22T07:16:53.338Z,300
2016-05-22T07:17:53.544Z,290
2016-05-22T07:18:53.438Z,285
2016-05-22T07:19:53.612Z,290
2016-05-22T07:20:53.506Z,290
2016-05-22T07:21:53.712Z,290
2016-05-22T07:22:53.574Z,280
2016-05-22T07:23:53.764Z,285
2016-05-22T07:24:53.829Z,290
2016-05-22T07:25:53.863Z,300
2016-05-22T07:26:53.897Z,305
2016-05-22T07:27:53.978Z,300
2016-05-22T07:28:53.995Z,300
2016-05-22T07:29:54.030Z,295
2016-05-22T07:30:54.064Z,300
2016-05-22T07:31:53.957Z,300
2016-05-22T07:32:54.163Z,305
2016-05-22T07:33:54.227Z,305
2016-05-22T07:34:54.214Z,315
2016-05-22T07:35:54.250Z,310
2016-05-22T07:36:54.299Z,315
2016-05-22T07:37:54.348Z,325
2016-05-22T07:38:54.382Z,330
2016-05-22T07:39:54.432Z,335
2016-05-22T07:40:54.309Z,335
2016-05-22T07:41:54.515Z,335
2016-05-22T07:42:55.205Z,335
2016-05-22T07:43:54.583Z,340
2016-05-22T07:44:54.632Z,355
2016-05-22T07:45:54.666Z,395
2016-05-22T07:46:54.731Z,460
2016-05-22T07:47:54.593Z,475
2016-05-22T07:48:54.628Z,585
2016-05-22T07:49:54.834Z,500
2016-05-22T07:50:54.882Z,530
2016-05-22T07:51:54.760Z,545
2016-05-22T07:52:54.795Z,515
2016-05-22T07:53:54.672Z,555
2016-05-22T07:54:55.035Z,470
2016-05-22T07:55:55.068Z,485
2016-05-22T07:56:55.117Z,480
2016-05-22T07:57:55.324Z,530
2016-05-22T07:58:55.201Z,615
2016-05-22T07:59:55.235Z,630
2016-05-22T08:00:55.285Z,645
2016-05-22T08:01:55.320Z,650
2016-05-22T08:02:55.212Z,685
2016-05-22T08:03:55.402Z,845
2016-05-22T08:04:55.312Z,940
2016-05-22T08:05:55.502Z,850
2016-05-22T08:06:55.379Z,855
2016-05-22T08:07:55.600Z,960
2016-05-22T08:08:55.322Z,1100
2016-05-22T08:09:55.513Z,1130
2016-05-22T08:10:55.703Z,920
2016-05-22T08:11:55.611Z,725
2016-05-22T08:12:55.677Z,915
2016-05-22T08:13:55.835Z,935
2016-05-22T08:14:55.885Z,1355
2016-05-22T08:15:55.918Z,1405
2016-05-22T08:16:55.812Z,1330
2016-05-22T08:17:56.018Z,1230
2016-05-22T08:18:55.912Z,1170
2016-05-22T08:19:55.960Z,1065
2016-05-22T08:20:56.151Z,975
2016-05-22T08:21:56.045Z,925
2016-05-22T08:22:56.251Z,855
2016-05-22T08:23:56.128Z,845
2016-05-22T08:24:56.178Z,820
2016-05-22T08:25:56.227Z,825
2016-05-22T08:26:56.261Z,785
2016-05-22T08:27:57.373Z,755
2016-05-22T08:28:56.517Z,770
2016-05-22T08:29:56.395Z,930
2016-05-22T08:30:56.600Z,965
2016-05-22T08:31:56.650Z,975
2016-05-22T08:32:56.699Z,1080
2016-05-22T08:33:56.593Z,1100
2016-05-22T08:34:56.783Z,1300
2016-05-22T08:35:56.833Z,1535
2016-05-22T08:36:56.569Z,1490
2016-05-22T08:37:56.775Z,1555
2016-05-22T08:38:56.668Z,1575
2016-05-22T08:39:57.015Z,1585
2016-05-22T08:40:57.064Z,1575
2016-05-22T08:41:57.130Z,1625
2016-05-22T08:42:57.179Z,1565
2016-05-22T08:43:57.197Z,1510
2016-05-22T08:44:57.247Z,1595
2016-05-22T08:45:57.141Z,1590
2016-05-22T08:46:57.362Z,1645
2016-05-22T08:47:57.396Z,1555
2016-05-22T08:48:57.445Z,1255
2016-05-22T08:49:57.370Z,1355
2016-05-22T08:50:57.388Z,1300
2016-05-22T08:51:57.593Z,1280
2016-05-22T08:52:57.471Z,1410
2016-05-22T08:53:57.537Z,1340
2016-05-22T08:54:57.446Z,1535
2016-05-22T08:55:57.464Z,1370
2016-05-22T08:56:57.842Z,1365
2016-05-22T08:57:58.063Z,1395
2016-05-22T08:58:57.925Z,1390
2016-05-22T08:59:57.990Z,1475
2016-05-22T09:00:58.024Z,1485
2016-05-22T09:01:58.073Z,1395
2016-05-22T09:02:58.123Z,1360
2016-05-22T09:03:58.173Z,1455
2016-05-22T09:04:58.206Z,1470
2016-05-22T09:05:58.116Z,1460
2016-05-22T09:06:58.306Z,1410
2016-05-22T09:07:58.200Z,1475
2016-05-22T09:08:58.405Z,1505
2016-05-22T09:09:58.455Z,1545
2016-05-22T09:10:58.505Z,1580
2016-05-22T09:11:58.538Z,1270
2016-05-22T09:12:59.119Z,1720
2016-05-22T09:13:58.653Z,1725
2016-05-22T09:14:58.688Z,1435
2016-05-22T09:15:58.580Z,1195
2016-05-22T09:16:58.785Z,1480
2016-05-22T09:17:58.851Z,1465
2016-05-22T09:18:58.901Z,1435
2016-05-22T09:19:58.935Z,1260
2016-05-22T09:20:58.984Z,1025
2016-05-22T09:21:59.034Z,1190
2016-05-22T09:22:59.084Z,1250
2016-05-22T09:23:59.149Z,1280
2016-05-22T09:24:59.167Z,1245
2016-05-22T09:25:59.248Z,1160
2016-05-22T09:26:59.110Z,1165
2016-05-22T09:27:59.159Z,1065
2016-05-22T09:28:59.209Z,975
2016-05-22T09:29:59.431Z,875
2016-05-22T09:30:59.309Z,890
2016-05-22T09:31:59.359Z,990
2016-05-22T09:32:59.579Z,1035
2016-05-22T09:33:59.597Z,1035
2016-05-22T09:34:59.647Z,1030
2016-05-22T09:35:59.728Z,1000
2016-05-22T09:36:59.589Z,970
2016-05-22T09:37:59.483Z,895
2016-05-22T09:38:59.830Z,775
2016-05-22T09:39:59.895Z,830
2016-05-22T09:40:59.960Z,885
2016-05-22T09:41:59.978Z,945
2016-05-22T09:43:00.138Z,1030
2016-05-22T09:43:59.921Z,1075
2016-05-22T09:45:00.111Z,1025
2016-05-22T09:46:00.177Z,1060
2016-05-22T09:47:00.227Z,1050
2016-05-22T09:48:00.276Z,1015
2016-05-22T09:49:00.325Z,1175
2016-05-22T09:50:00.360Z,1115
2016-05-22T09:51:00.409Z,1235
2016-05-22T09:52:00.474Z,1090
2016-05-22T09:53:00.352Z,935
2016-05-22T09:54:00.402Z,905
2016-05-22T09:55:00.591Z,630
2016-05-22T09:56:00.657Z,490
2016-05-22T09:57:00.690Z,440
2016-05-22T09:58:01.084Z,400
2016-05-22T09:59:00.774Z,365
2016-05-22T10:00:00.839Z,355
2016-05-22T10:01:00.889Z,375
2016-05-22T10:02:00.923Z,400
2016-05-22T10:03:00.831Z,420
2016-05-22T10:04:00.865Z,410
2016-05-22T10:05:01.056Z,395
2016-05-22T10:06:00.950Z,400
2016-05-22T10:07:01.156Z,495
2016-05-22T10:08:01.048Z,830
2016-05-22T10:09:01.317Z,975
2016-05-22T10:10:01.288Z,900
2016-05-22T10:11:01.369Z,995
2016-05-22T10:12:01.403Z,1315
2016-05-22T10:13:01.796Z,1300
2016-05-22T10:14:01.392Z,1110
2016-05-22T10:15:01.536Z,1160
2016-05-22T10:16:01.601Z,1130
2016-05-22T10:17:01.464Z,1120
2016-05-22T10:18:01.731Z,1110
2016-05-22T10:19:01.703Z,1075
2016-05-22T10:20:01.768Z,1070
2016-05-22T10:21:01.786Z,1015
2016-05-22T10:22:01.836Z,910
2016-05-22T10:23:01.729Z,920
2016-05-22T10:24:01.935Z,925
2016-05-22T10:25:01.829Z,910
2016-05-22T10:26:01.878Z,845
2016-05-22T10:27:01.756Z,830
2016-05-22T10:28:02.462Z,825
2016-05-22T10:29:02.214Z,795
2016-05-22T10:30:02.217Z,815
2016-05-22T10:31:02.109Z,830
2016-05-22T10:32:02.004Z,860
2016-05-22T10:33:02.351Z,770
2016-05-22T10:34:02.243Z,690
2016-05-22T10:35:02.293Z,595
2016-05-22T10:36:02.499Z,520
2016-05-22T10:37:02.548Z,485
2016-05-22T10:38:02.598Z,445
2016-05-22T10:39:02.475Z,415
2016-05-22T10:40:02.509Z,390
2016-05-22T10:41:02.731Z,390
2016-05-22T10:42:02.781Z,390
2016-05-22T10:43:02.674Z,390
2016-05-22T10:44:02.802Z,380
2016-05-22T10:45:02.757Z,380
2016-05-22T10:46:02.964Z,375
2016-05-22T10:47:02.980Z,375
2016-05-22T10:48:03.046Z,380
2016-05-22T10:49:02.940Z,395
2016-05-22T10:50:02.989Z,410
2016-05-22T10:51:03.196Z,450
2016-05-22T10:52:02.916Z,510
2016-05-22T10:53:03.279Z,585
2016-05-22T10:54:03.329Z,610
2016-05-22T10:55:03.363Z,640
2016-05-22T10:56:03.256Z,720
2016-05-22T10:57:03.289Z,685
2016-05-22T10:58:03.401Z,530
2016-05-22T10:59:03.435Z,480
2016-05-22T11:00:03.579Z,455
2016-05-22T11:01:03.473Z,545
2016-05-22T11:02:03.678Z,525
2016-05-22T11:03:03.571Z,730
2016-05-22T11:04:03.449Z,715
2016-05-22T11:05:03.812Z,525
2016-05-22T11:06:03.892Z,600
2016-05-22T11:07:03.894Z,940
2016-05-22T11:08:03.787Z,1265
2016-05-22T11:09:03.994Z,755
2016-05-22T11:10:04.027Z,745
2016-05-22T11:11:04.062Z,505
2016-05-22T11:12:04.142Z,995
2016-05-22T11:13:04.489Z,1210
2016-05-22T11:14:04.428Z,1195
2016-05-22T11:15:04.260Z,550
2016-05-22T11:16:04.309Z,595
2016-05-22T11:17:04.219Z,435
2016-05-22T11:18:04.393Z,365
2016-05-22T11:19:04.427Z,330
2016-05-22T11:20:04.319Z,310
2016-05-22T11:21:04.526Z,310
2016-05-22T11:22:04.575Z,310
2016-05-22T11:23:04.610Z,305
2016-05-22T11:24:04.660Z,275
2016-05-22T11:25:04.583Z,270
2016-05-22T11:26:04.743Z,270
2016-05-22T11:27:04.652Z,265
2016-05-22T11:28:04.685Z,275
2016-05-22T11:29:05.641Z,285
2016-05-22T11:30:04.925Z,315
2016-05-22T11:31:04.818Z,400
2016-05-22T11:32:04.852Z,405
2016-05-22T11:33:05.043Z,395
2016-05-22T11:34:04.780Z,405
2016-05-22T11:35:04.985Z,405
2016-05-22T11:36:05.192Z,380
2016-05-22T11:37:05.241Z,385
2016-05-22T11:38:05.290Z,420
2016-05-22T11:39:05.168Z,430
2016-05-22T11:40:05.217Z,435
2016-05-22T11:41:05.408Z,425
2016-05-22T11:42:05.458Z,430
2016-05-22T11:43:05.757Z,420
2016-05-22T11:44:05.400Z,410
2016-05-22T11:45:05.575Z,390
2016-05-22T11:46:05.625Z,385
2016-05-22T11:47:05.534Z,475
2016-05-22T11:48:05.724Z,1405
2016-05-22T11:49:05.788Z,590
2016-05-22T11:50:05.808Z,775
2016-05-22T11:51:05.857Z,860
2016-05-22T11:52:05.891Z,945
2016-05-22T11:53:05.956Z,770
2016-05-22T11:54:05.833Z,550
2016-05-22T11:55:06.039Z,470
2016-05-22T11:56:05.917Z,485
2016-05-22T11:57:06.123Z,800
2016-05-22T11:58:06.516Z,1260
2016-05-22T11:59:06.206Z,605
2016-05-22T12:00:06.099Z,820
2016-05-22T12:01:06.134Z,2050
2016-05-22T12:02:06.324Z,2135
2016-05-22T12:03:06.218Z,2030
2016-05-22T12:04:06.407Z,1950
2016-05-22T12:05:06.473Z,1980
2016-05-22T12:06:06.506Z,1825
2016-05-22T12:07:06.400Z,1860
2016-05-22T12:08:06.606Z,1295
2016-05-22T12:09:06.498Z,1310
2016-05-22T12:10:06.689Z,575
2016-05-22T12:11:06.582Z,1570
2016-05-22T12:12:06.476Z,1215
2016-05-22T12:13:06.948Z,625
2016-05-22T12:14:07.277Z,1480
2016-05-22T12:15:06.937Z,1695
2016-05-22T12:16:07.002Z,1570
2016-05-22T12:17:06.895Z,1335
2016-05-22T12:18:06.945Z,560
2016-05-22T12:19:07.135Z,375
2016-05-22T12:20:07.185Z,735
2016-05-22T12:21:07.218Z,1045
2016-05-22T12:22:07.299Z,415
2016-05-22T12:23:07.318Z,365
2016-05-22T12:24:07.383Z,695
2016-05-22T12:25:07.417Z,1115
2016-05-22T12:26:07.311Z,565
2016-05-22T12:27:07.500Z,795
2016-05-22T12:28:07.674Z,900
2016-05-22T12:29:07.834Z,890
2016-05-22T12:30:07.665Z,840
2016-05-22T12:31:07.698Z,750
2016-05-22T12:32:07.748Z,670
2016-05-22T12:33:07.485Z,690
2016-05-22T12:34:07.862Z,740
2016-05-22T12:35:07.896Z,710
2016-05-22T12:36:07.944Z,635
2016-05-22T12:37:07.999Z,640
2016-05-22T12:38:07.928Z,530
2016-05-22T12:39:08.153Z,530
2016-05-22T12:40:08.066Z,700
2016-05-22T12:41:08.127Z,675
2016-05-22T12:42:08.168Z,770
2016-05-22T12:43:08.381Z,840
2016-05-22T12:44:08.515Z,760
2016-05-22T12:45:08.510Z,730
2016-05-22T12:46:08.531Z,710
2016-05-22T12:47:08.584Z,650
2016-05-22T12:48:08.495Z,540
2016-05-22T12:49:08.673Z,460
2016-05-22T12:50:08.724Z,425
2016-05-22T12:51:08.776Z,410
2016-05-22T12:52:08.670Z,410
2016-05-22T12:53:08.877Z,425
2016-05-22T12:54:08.911Z,410
2016-05-22T12:55:08.806Z,400
2016-05-22T12:56:09.012Z,380
2016-05-22T12:57:09.046Z,365
2016-05-22T12:58:09.346Z,345
2016-05-22T12:59:09.161Z,340
2016-05-22T13:00:09.197Z,340
2016-05-22T13:01:09.277Z,345
2016-05-22T13:02:09.295Z,355
2016-05-22T13:03:09.189Z,370
2016-05-22T13:04:09.365Z,380
2016-05-22T13:05:09.414Z,410
2016-05-22T13:06:09.465Z,465
2016-05-22T13:07:09.357Z,530
2016-05-22T13:08:09.563Z,460
2016-05-22T13:09:09.426Z,425
2016-05-22T13:10:09.475Z,445
2016-05-22T13:11:09.523Z,490
2016-05-22T13:12:09.730Z,470
2016-05-22T13:13:09.795Z,530
2016-05-22T13:14:09.579Z,525
2016-05-22T13:15:09.864Z,445
2016-05-22T13:16:09.912Z,440
2016-05-22T13:17:11.134Z,440
2016-05-22T13:18:09.825Z,450
2016-05-22T13:19:10.030Z,455
2016-05-22T13:20:10.095Z,385
2016-05-22T13:21:10.145Z,365
2016-05-22T13:22:10.163Z,340
2016-05-22T13:23:10.056Z,345
2016-05-22T13:24:10.294Z,325
2016-05-22T13:25:10.406Z,325
2016-05-22T13:26:10.346Z,355
2016-05-22T13:27:10.410Z,345
2016-05-22T13:28:11.414Z,315
2016-05-22T13:29:10.354Z,305
2016-05-22T13:30:10.356Z,290
2016-05-22T13:31:10.578Z,290
2016-05-22T13:32:12.174Z,290
2016-05-22T13:33:10.646Z,280
2016-05-22T13:34:10.696Z,270
2016-05-22T13:35:10.620Z,250
2016-05-22T13:36:10.779Z,225
2016-05-22T13:37:10.812Z,210
2016-05-22T13:38:10.722Z,200
2016-05-22T13:39:10.912Z,185
2016-05-22T13:40:10.806Z,175
2016-05-22T13:41:10.714Z,165
2016-05-22T13:42:10.873Z,155
2016-05-22T13:43:11.095Z,140
2016-05-22T13:44:11.019Z,130
2016-05-22T13:45:11.023Z,120
2016-05-22T13:46:11.087Z,115
2016-05-22T13:47:11.278Z,125
2016-05-22T13:48:11.342Z,135
2016-05-22T13:49:11.361Z,135
2016-05-22T13:50:11.254Z,145
2016-05-22T13:51:11.444Z,160
2016-05-22T13:52:11.322Z,160
2016-05-22T13:53:11.512Z,155
2016-05-22T13:54:11.421Z,150
2016-05-22T13:55:11.455Z,155
2016-05-22T13:56:11.661Z,150
2016-05-22T13:57:11.694Z,140
2016-05-22T13:58:11.620Z,135
2016-05-22T13:59:12.185Z,145
2016-05-22T14:00:11.671Z,160